Date,TemperatureHighF,TemperatureAvgF,TemperatureLowF,DewpointHighF,DewpointAvgF,DewpointLowF,HumidityHigh,HumidityAvg,HumidityLow,PressureMaxIn,PressureMinIn,WindSpeedMaxMPH,WindSpeedAvgMPH,GustSpeedMaxMPH,PrecipitationSumIn
2013-9-21,86,73,62,69,58,41,99,66,23,29.75,29.65,17,7,18,0.01
2013-9-22,87,71,57,57,50,42,80,53,22,29.73,29.60,9,2,12,0.00
2013-9-23,91,73,55,59,52,43,92,54,20,29.67,29.57,14,2,14,0.00
2013-9-24,97,79,62,63,59,54,85,54,28,29.75,29.65,11,2,11,0.00
2013-9-25,96,80,64,64,60,57,87,54,30,29.73,29.59,10,2,12,0.00
2013-9-26,92,81,69,73,60,49,82,50,26,29.72,29.63,16,6,18,0.00
2013-9-27,90,80,75,77,74,71,94,82,55,29.74,29.64,17,7,17,0.07
2013-9-28,91,79,73,78,75,70,98,86,52,29.82,29.69,15,6,17,0.32
2013-9-29,79,68,64,71,65,62,99,89,59,29.88,29.74,14,4,14,0.11
2013-9-30,91,74,59,68,58,46,99,64,22,29.77,29.62,8,2,8,0.00
2013-10-1,91,77,68,74,67,56,99,73,39,29.75,29.65,14,5,14,0.00
2013-10-2,92,80,74,77,72,66,95,79,45,29.78,29.67,16,6,16,0.06
2013-10-3,92,81,74,75,70,65,97,73,42,29.75,29.64,15,6,15,0.00
2013-10-4,91,80,73,73,70,66,95,73,45,29.73,29.65,22,8,22,0.00
2013-10-5,89,74,60,74,62,39,97,69,43,29.89,29.68,20,7,20,0.00
2013-10-6,81,65,51,53,41,19,94,50,10,29.95,29.85,19,4,19,0.25
2013-10-7,88,67,47,49,40,26,82,45,11,29.97,29.85,10,1,10,0.00
2013-10-8,86,69,50,52,46,39,87,50,23,29.91,29.78,19,3,19,0.00
2013-10-9,84,71,55,61,55,48,94,61,35,29.87,29.76,16,5,16,0.00
2013-10-10,86,73,61,67,63,58,98,73,45,29.85,29.69,19,5,19,0.00
2013-10-11,89,77,70,75,70,66,95,81,51,29.76,29.65,16,7,16,0.04
2013-10-12,92,80,72,76,72,68,98,79,46,29.85,29.72,17,5,17,0.01
2013-10-13,77,70,66,74,69,66,99,95,83,29.98,29.83,15,5,15,1.58
2013-10-14,78,73,70,75,71,70,98,94,84,29.91,29.74,14,5,14,0.19
2013-10-15,83,72,56,73,68,54,98,88,65,29.83,29.69,17,6,17,0.00
2013-10-16,61,56,52,58,55,52,99,95,86,29.88,29.78,14,6,14,0.86
2013-10-17,77,61,49,56,49,45,96,70,33,29.94,29.79,9,2,9,0.00
2013-10-18,71,64,54,64,57,50,92,80,68,29.83,29.69,12,3,13,0.04
2013-10-19,69,55,44,62,43,35,94,68,30,30.01,29.83,23,6,23,0.00
2013-10-20,75,57,42,73,56,40,94,93,87,29.90,29.71,16,3,16,0.00
2013-10-21,81,67,59,68,61,54,94,80,58,29.88,29.58,20,4,20,0.00
2013-10-22,78,62,50,56,44,33,87,58,21,29.97,29.88,13,5,13,0.00
2013-10-23,84,66,49,50,42,25,79,48,13,29.97,29.88,12,3,12,0.00
2013-10-24,85,68,57,48,44,40,61,44,23,30.03,29.92,12,4,12,0.00
2013-10-25,89,73,66,60,58,43,79,61,49,30.12,29.80,15,5,15,0.00
2013-10-26,80,70,62,65,62,59,93,77,54,29.82,29.65,18,6,18,0.00
2013-10-27,76,67,63,67,63,60,99,89,65,29.72,29.62,12,3,12,0.22
2013-10-28,81,71,64,69,66,63,99,85,58,29.69,29.58,19,8,19,0.00
2013-10-29,84,75,70,71,68,66,93,81,56,29.67,29.58,20,9,20,0.00
2013-10-30,83,75,72,76,72,68,99,90,72,29.64,29.42,17,6,17,0.97
2013-10-31,81,70,53,73,53,21,99,66,11,29.50,29.35,19,5,19,0.17
2013-11-1,85,65,49,55,42,19,83,51,11,29.69,29.43,19,5,19,0.00
2013-11-2,74,60,46,45,37,13,82,48,10,29.90,29.69,15,4,15,0.00
2013-11-3,70,56,41,52,39,31,89,58,24,29.83,29.59,18,4,18,0.00
2013-11-4,65,61,58,63,59,52,97,92,77,29.66,29.56,17,4,17,0.07
2013-11-5,80,70,63,70,66,62,99,89,64,29.62,29.50,17,6,17,0.00
2013-11-6,71,58,48,69,54,42,99,86,59,29.94,29.58,21,6,21,0.73
2013-11-7,66,52,39,44,38,29,92,64,28,30.06,29.93,14,3,14,0.00
2013-11-8,66,55,47,46,40,29,85,60,29,29.99,29.75,13,2,13,0.00
2013-11-9,67,60,54,57,52,43,82,74,62,29.78,29.69,12,4,12,0.00
2013-11-10,75,63,57,58,55,50,95,78,54,29.91,29.77,8,2,8,0.00
2013-11-11,79,62,47,56,51,46,97,71,41,29.87,29.76,8,1,8,0.00
2013-11-12,59,51,39,55,42,22,98,74,43,30.22,29.85,22,7,22,0.02
2013-11-13,59,42,30,27,23,19,71,51,23,30.23,29.96,11,3,11,0.00
2013-11-14,62,49,33,50,33,19,82,57,21,29.97,29.62,18,4,18,0.00
2013-11-15,79,64,50,60,55,50,99,75,45,29.63,29.45,14,5,14,0.00
2013-11-16,81,71,63,70,66,60,96,83,59,29.50,29.34,24,9,24,0.01
2013-11-17,91,76,63,72,64,52,98,70,28,29.56,29.37,18,5,18,0.00
2013-11-18,78,66,56,62,52,45,90,62,44,29.72,29.55,11,4,11,0.00
2013-11-19,74,62,52,50,44,38,75,54,30,29.75,29.59,13,4,13,0.00
2013-11-20,71,63,57,65,55,44,99,77,59,29.62,29.50,14,6,14,0.00
2013-11-21,79,72,65,72,69,65,99,90,73,29.67,29.52,34,5,34,1.61
2013-11-22,70,39,33,70,38,32,99,98,94,29.97,29.65,24,11,24,1.26
2013-11-23,40,36,33,39,36,33,99,98,91,30.05,29.95,19,9,19,0.09
2013-11-24,40,36,32,38,32,27,96,83,65,30.07,29.88,21,6,21,0.09
2013-11-25,38,35,32,38,34,31,99,97,89,29.91,29.67,17,4,17,0.46
2013-11-26,53,41,36,37,32,27,91,72,40,29.93,29.70,22,9,22,0.05
2013-11-27,53,39,29,28,22,11,77,54,19,30.06,29.92,17,4,17,0.00
2013-11-28,58,40,30,33,26,16,82,59,21,30.02,29.91,9,2,9,0.00
2013-11-29,64,48,31,48,39,25,96,73,48,30.08,29.92,13,2,13,0.00
2013-11-30,64,56,50,56,50,43,94,80,69,29.95,29.77,11,3,11,0.00
2013-12-1,72,63,55,60,57,54,99,82,59,29.78,29.52,17,6,17,0.00
2013-12-2,84,66,56,56,48,33,95,59,17,29.53,29.27,17,4,17,0.00
2013-12-3,85,66,52,50,42,24,78,46,12,29.31,29.20,13,4,13,0.00
2013-12-4,74,66,59,65,58,44,95,77,52,29.39,29.26,14,5,14,0.00
2013-12-5,65,42,29,65,35,21,99,78,56,29.69,29.37,21,9,21,0.00
2013-12-6,32,30,25,31,26,18,98,88,72,30.01,29.63,15,3,15,0.01
2013-12-7,27,24,22,22,18,16,89,76,69,30.04,29.85,0,0,0,0.00
2013-12-8,51,34,24,40,30,22,95,87,65,29.85,29.59,7,1,7,0.01
2013-12-9,37,34,31,36,34,29,99,97,92,29.96,29.62,16,6,16,0.06
2013-12-10,48,34,24,29,22,17,92,64,33,30.08,29.91,17,5,17,0.00
2013-12-11,60,41,26,33,26,19,83,59,27,30.13,29.89,9,2,9,0.00
2013-12-12,56,41,30,35,30,25,83,65,37,30.16,29.88,8,3,8,0.00
2013-12-13,50,45,42,49,41,33,99,88,69,29.88,29.47,14,4,14,0.35
2013-12-14,50,44,36,48,39,27,99,84,61,29.92,29.44,22,7,22,0.01
2013-12-15,63,45,32,33,29,23,75,56,22,29.97,29.84,8,2,8,0.00
2013-12-16,68,51,37,34,31,28,78,50,23,29.88,29.76,16,5,16,0.00
2013-12-17,76,55,42,39,33,17,72,49,12,29.89,29.81,10,3,10,0.00
2013-12-18,71,57,46,53,47,38,91,70,46,29.86,29.63,18,6,18,0.00
2013-12-19,75,64,55,64,58,51,94,82,57,29.63,29.39,24,10,24,0.01
2013-12-20,73,68,64,68,65,63,97,89,75,29.45,29.24,22,8,22,0.00
2013-12-21,71,52,40,67,45,37,99,82,47,29.41,29.17,14,4,16,0.57
2013-12-22,53,45,34,42,35,26,99,69,43,29.95,29.41,21,6,21,0.00
2013-12-23,59,40,27,30,26,21,87,61,23,30.10,29.94,10,3,10,0.00
2013-12-24,59,43,28,39,26,17,93,58,20,30.10,29.84,17,4,17,0.00
2013-12-25,63,48,36,48,42,35,99,81,57,29.98,29.82,12,3,12,0.00
2013-12-26,59,44,34,40,36,31,91,75,48,30.01,29.89,12,3,12,0.00
2013-12-27,59,47,39,43,39,36,93,75,47,30.02,29.89,8,1,8,0.00
2013-12-28,64,49,36,48,40,34,98,74,41,29.90,29.59,12,3,12,0.00
2013-12-29,60,46,31,53,42,29,99,89,68,29.87,29.54,18,6,18,0.00
2013-12-30,44,36,30,29,26,21,92,67,49,29.96,29.81,16,4,16,0.00
2013-12-31,59,42,32,32,27,23,82,60,26,30.04,29.81,9,2,9,0.00
2014-1-1,69,51,36,54,42,28,97,73,55,29.81,29.56,23,7,23,0.00
2014-1-2,52,40,28,46,23,15,82,54,23,30.02,29.71,22,7,22,0.00